sensor_id;sensor_type;location;lat;lon;timestamp;P1;durP1;ratioP1;P2;durP2;ratioP2
60169;SDS011;46042;49.444;6.862;2023-07-29T00:00:14;9.38;;;3.40;;
60169;SDS011;46042;49.444;6.862;2023-07-29T00:02:40;5.18;;;3.05;;
60169;SDS011;46042;49.444;6.862;2023-07-29T00:05:07;12.23;;;3.15;;
60169;SDS011;46042;49.444;6.862;2023-07-29T00:07:34;7.75;;;3.17;;
60169;SDS011;46042;49.444;6.862;2023-07-29T00:10:01;4.95;;;3.20;;
60169;SDS011;46042;49.444;6.862;2023-07-29T00:12:29;9.93;;;2.97;;
60169;SDS011;46042;49.444;6.862;2023-07-29T00:14:56;7.70;;;3.22;;
60169;SDS011;46042;49.444;6.862;2023-07-29T00:17:22;8.65;;;3.40;;
60169;SDS011;46042;49.444;6.862;2023-07-29T00:19:49;9.57;;;2.90;;
60169;SDS011;46042;49.444;6.862;2023-07-29T00:22:16;8.27;;;3.25;;
60169;SDS011;46042;49.444;6.862;2023-07-29T00:24:42;17.25;;;3.28;;
60169;SDS011;46042;49.444;6.862;2023-07-29T00:27:09;11.82;;;3.25;;
60169;SDS011;46042;49.444;6.862;2023-07-29T00:29:36;14.95;;;3.50;;
60169;SDS011;46042;49.444;6.862;2023-07-29T00:32:02;6.05;;;3.30;;
60169;SDS011;46042;49.444;6.862;2023-07-29T00:34:29;5.78;;;3.30;;
60169;SDS011;46042;49.444;6.862;2023-07-29T00:36:57;9.55;;;4.45;;
60169;SDS011;46042;49.444;6.862;2023-07-29T00:39:24;5.93;;;3.40;;
60169;SDS011;46042;49.444;6.862;2023-07-29T00:41:50;7.15;;;3.70;;
60169;SDS011;46042;49.444;6.862;2023-07-29T00:44:17;8.57;;;3.65;;
60169;SDS011;46042;49.444;6.862;2023-07-29T00:46:44;5.40;;;3.30;;
60169;SDS011;46042;49.444;6.862;2023-07-29T00:49:12;16.73;;;3.88;;
60169;SDS011;46042;49.444;6.862;2023-07-29T00:51:39;7.00;;;3.20;;
60169;SDS011;46042;49.444;6.862;2023-07-29T00:54:05;5.70;;;3.45;;
60169;SDS011;46042;49.444;6.862;2023-07-29T00:56:32;9.30;;;3.40;;
60169;SDS011;46042;49.444;6.862;2023-07-29T00:59:00;7.90;;;4.10;;
60169;SDS011;46042;49.444;6.862;2023-07-29T01:01:28;8.25;;;3.45;;
60169;SDS011;46042;49.444;6.862;2023-07-29T01:03:55;5.50;;;3.42;;
60169;SDS011;46042;49.444;6.862;2023-07-29T01:14:34;9.05;;;3.58;;
60169;SDS011;46042;49.444;6.862;2023-07-29T01:17:07;8.35;;;3.20;;
60169;SDS011;46042;49.444;6.862;2023-07-29T01:22:27;5.57;;;3.28;;
60169;SDS011;46042;49.444;6.862;2023-07-29T01:24:56;6.45;;;3.70;;
60169;SDS011;46042;49.444;6.862;2023-07-29T01:27:23;7.75;;;3.42;;
60169;SDS011;46042;49.444;6.862;2023-07-29T01:29:49;11.40;;;3.42;;
60169;SDS011;46042;49.444;6.862;2023-07-29T01:32:37;13.07;;;4.30;;
60169;SDS011;46042;49.444;6.862;2023-07-29T01:35:08;8.27;;;3.63;;
60169;SDS011;46042;49.444;6.862;2023-07-29T01:38:10;12.95;;;4.38;;
60169;SDS011;46042;49.444;6.862;2023-07-29T01:40:42;11.20;;;3.72;;
60169;SDS011;46042;49.444;6.862;2023-07-29T01:43:10;9.18;;;3.65;;
60169;SDS011;46042;49.444;6.862;2023-07-29T01:45:37;9.20;;;3.58;;
60169;SDS011;46042;49.444;6.862;2023-07-29T01:48:06;6.45;;;3.53;;
60169;SDS011;46042;49.444;6.862;2023-07-29T01:50:36;7.78;;;3.67;;
60169;SDS011;46042;49.444;6.862;2023-07-29T01:53:02;11.52;;;3.70;;
60169;SDS011;46042;49.444;6.862;2023-07-29T01:55:29;14.80;;;4.68;;
60169;SDS011;46042;49.444;6.862;2023-07-29T01:57:56;10.07;;;4.25;;
60169;SDS011;46042;49.444;6.862;2023-07-29T02:00:22;9.70;;;4.03;;
60169;SDS011;46042;49.444;6.862;2023-07-29T02:02:49;8.35;;;3.95;;
60169;SDS011;46042;49.444;6.862;2023-07-29T02:05:16;7.53;;;4.20;;
60169;SDS011;46042;49.444;6.862;2023-07-29T02:07:42;14.65;;;4.63;;
60169;SDS011;46042;49.444;6.862;2023-07-29T02:10:09;11.52;;;4.10;;
60169;SDS011;46042;49.444;6.862;2023-07-29T02:12:36;10.18;;;4.05;;
60169;SDS011;46042;49.444;6.862;2023-07-29T02:15:03;11.35;;;3.50;;
60169;SDS011;46042;49.444;6.862;2023-07-29T02:17:30;9.32;;;3.33;;
60169;SDS011;46042;49.444;6.862;2023-07-29T02:19:57;6.35;;;3.72;;
60169;SDS011;46042;49.444;6.862;2023-07-29T02:22:24;6.43;;;3.55;;
60169;SDS011;46042;49.444;6.862;2023-07-29T02:24:51;6.25;;;3.80;;
60169;SDS011;46042;49.444;6.862;2023-07-29T02:27:17;7.85;;;3.72;;
60169;SDS011;46042;49.444;6.862;2023-07-29T02:29:44;10.05;;;3.75;;
60169;SDS011;46042;49.444;6.862;2023-07-29T02:32:11;6.18;;;3.70;;
60169;SDS011;46042;49.444;6.862;2023-07-29T02:34:37;9.80;;;4.03;;
60169;SDS011;46042;49.444;6.862;2023-07-29T02:37:04;5.60;;;2.95;;
60169;SDS011;46042;49.444;6.862;2023-07-29T02:39:31;13.43;;;3.90;;
60169;SDS011;46042;49.444;6.862;2023-07-29T02:41:58;7.85;;;3.60;;
60169;SDS011;46042;49.444;6.862;2023-07-29T02:44:24;8.75;;;3.70;;
60169;SDS011;46042;49.444;6.862;2023-07-29T02:46:51;13.23;;;3.85;;
60169;SDS011;46042;49.444;6.862;2023-07-29T02:49:20;13.02;;;4.22;;
60169;SDS011;46042;49.444;6.862;2023-07-29T02:51:46;12.15;;;3.53;;
60169;SDS011;46042;49.444;6.862;2023-07-29T02:54:13;9.02;;;4.03;;
60169;SDS011;46042;49.444;6.862;2023-07-29T02:56:39;13.48;;;4.53;;
60169;SDS011;46042;49.444;6.862;2023-07-29T02:59:06;9.05;;;3.60;;
60169;SDS011;46042;49.444;6.862;2023-07-29T03:01:33;8.20;;;4.15;;
60169;SDS011;46042;49.444;6.862;2023-07-29T03:04:00;9.52;;;4.07;;
60169;SDS011;46042;49.444;6.862;2023-07-29T03:06:27;14.25;;;3.85;;
60169;SDS011;46042;49.444;6.862;2023-07-29T03:08:54;16.52;;;4.60;;
60169;SDS011;46042;49.444;6.862;2023-07-29T03:11:20;7.68;;;3.67;;
60169;SDS011;46042;49.444;6.862;2023-07-29T03:13:47;8.90;;;4.28;;
60169;SDS011;46042;49.444;6.862;2023-07-29T03:16:14;15.73;;;3.97;;
60169;SDS011;46042;49.444;6.862;2023-07-29T03:18:42;13.75;;;4.43;;
60169;SDS011;46042;49.444;6.862;2023-07-29T03:21:10;8.82;;;3.75;;
60169;SDS011;46042;49.444;6.862;2023-07-29T03:23:37;10.43;;;4.38;;
60169;SDS011;46042;49.444;6.862;2023-07-29T03:26:04;8.07;;;3.88;;
60169;SDS011;46042;49.444;6.862;2023-07-29T03:28:41;11.88;;;4.53;;
60169;SDS011;46042;49.444;6.862;2023-07-29T03:33:35;9.68;;;4.22;;
60169;SDS011;46042;49.444;6.862;2023-07-29T03:36:02;13.23;;;4.50;;
60169;SDS011;46042;49.444;6.862;2023-07-29T03:38:29;6.82;;;3.67;;
60169;SDS011;46042;49.444;6.862;2023-07-29T03:40:56;14.75;;;4.00;;
60169;SDS011;46042;49.444;6.862;2023-07-29T03:43:23;12.75;;;3.70;;
60169;SDS011;46042;49.444;6.862;2023-07-29T03:45:50;15.10;;;3.70;;
60169;SDS011;46042;49.444;6.862;2023-07-29T03:48:16;9.25;;;3.90;;
60169;SDS011;46042;49.444;6.862;2023-07-29T03:50:43;7.07;;;3.75;;
60169;SDS011;46042;49.444;6.862;2023-07-29T03:53:10;5.40;;;3.38;;
60169;SDS011;46042;49.444;6.862;2023-07-29T03:55:37;14.40;;;3.97;;
60169;SDS011;46042;49.444;6.862;2023-07-29T03:58:03;12.07;;;3.80;;
60169;SDS011;46042;49.444;6.862;2023-07-29T04:00:30;9.75;;;3.83;;
60169;SDS011;46042;49.444;6.862;2023-07-29T04:02:57;10.32;;;4.57;;
60169;SDS011;46042;49.444;6.862;2023-07-29T04:05:24;6.57;;;3.67;;
60169;SDS011;46042;49.444;6.862;2023-07-29T04:07:50;10.93;;;4.10;;
60169;SDS011;46042;49.444;6.862;2023-07-29T04:10:18;10.57;;;3.80;;
60169;SDS011;46042;49.444;6.862;2023-07-29T04:12:45;12.45;;;3.63;;
60169;SDS011;46042;49.444;6.862;2023-07-29T04:15:11;9.75;;;4.97;;
60169;SDS011;46042;49.444;6.862;2023-07-29T04:17:38;8.32;;;4.30;;
60169;SDS011;46042;49.444;6.862;2023-07-29T04:20:05;10.82;;;4.72;;
60169;SDS011;46042;49.444;6.862;2023-07-29T04:22:32;20.52;;;4.72;;
60169;SDS011;46042;49.444;6.862;2023-07-29T04:24:59;10.60;;;4.22;;
60169;SDS011;46042;49.444;6.862;2023-07-29T04:27:26;10.63;;;4.57;;
60169;SDS011;46042;49.444;6.862;2023-07-29T04:29:52;8.75;;;4.00;;
60169;SDS011;46042;49.444;6.862;2023-07-29T04:32:19;10.40;;;3.75;;
60169;SDS011;46042;49.444;6.862;2023-07-29T04:34:46;11.32;;;4.15;;
60169;SDS011;46042;49.444;6.862;2023-07-29T04:37:12;13.00;;;4.28;;
60169;SDS011;46042;49.444;6.862;2023-07-29T04:39:39;12.10;;;4.20;;
60169;SDS011;46042;49.444;6.862;2023-07-29T04:42:06;16.67;;;4.50;;
60169;SDS011;46042;49.444;6.862;2023-07-29T04:44:32;14.40;;;4.38;;
60169;SDS011;46042;49.444;6.862;2023-07-29T04:46:59;11.40;;;4.00;;
60169;SDS011;46042;49.444;6.862;2023-07-29T04:49:25;11.20;;;4.32;;
60169;SDS011;46042;49.444;6.862;2023-07-29T04:51:52;7.15;;;4.22;;
60169;SDS011;46042;49.444;6.862;2023-07-29T04:54:19;7.82;;;4.78;;
60169;SDS011;46042;49.444;6.862;2023-07-29T04:56:47;6.75;;;4.43;;
60169;SDS011;46042;49.444;6.862;2023-07-29T04:59:13;9.70;;;4.43;;
60169;SDS011;46042;49.444;6.862;2023-07-29T05:01:40;17.05;;;4.70;;
60169;SDS011;46042;49.444;6.862;2023-07-29T05:04:08;12.38;;;5.05;;
60169;SDS011;46042;49.444;6.862;2023-07-29T05:06:35;10.77;;;5.03;;
60169;SDS011;46042;49.444;6.862;2023-07-29T05:09:15;18.75;;;5.65;;
60169;SDS011;46042;49.444;6.862;2023-07-29T05:11:43;9.10;;;5.55;;
60169;SDS011;46042;49.444;6.862;2023-07-29T05:14:13;22.58;;;5.78;;
60169;SDS011;46042;49.444;6.862;2023-07-29T05:16:41;13.88;;;6.00;;
60169;SDS011;46042;49.444;6.862;2023-07-29T05:19:07;12.05;;;5.43;;
60169;SDS011;46042;49.444;6.862;2023-07-29T05:21:34;11.07;;;5.10;;
60169;SDS011;46042;49.444;6.862;2023-07-29T05:24:01;15.25;;;4.97;;
60169;SDS011;46042;49.444;6.862;2023-07-29T05:26:28;8.45;;;4.28;;
60169;SDS011;46042;49.444;6.862;2023-07-29T05:28:54;13.75;;;4.75;;
60169;SDS011;46042;49.444;6.862;2023-07-29T05:31:22;26.95;;;4.50;;
60169;SDS011;46042;49.444;6.862;2023-07-29T05:33:49;20.15;;;3.83;;
60169;SDS011;46042;49.444;6.862;2023-07-29T05:36:15;14.40;;;3.50;;
60169;SDS011;46042;49.444;6.862;2023-07-29T05:38:42;8.45;;;2.45;;
60169;SDS011;46042;49.444;6.862;2023-07-29T05:41:09;49.72;;;4.38;;
60169;SDS011;46042;49.444;6.862;2023-07-29T05:43:35;8.50;;;2.70;;
60169;SDS011;46042;49.444;6.862;2023-07-29T05:46:02;11.82;;;3.30;;
60169;SDS011;46042;49.444;6.862;2023-07-29T05:48:29;19.15;;;3.10;;
60169;SDS011;46042;49.444;6.862;2023-07-29T05:50:56;14.10;;;3.17;;
60169;SDS011;46042;49.444;6.862;2023-07-29T05:53:23;34.47;;;6.22;;
60169;SDS011;46042;49.444;6.862;2023-07-29T05:55:49;22.77;;;5.43;;
60169;SDS011;46042;49.444;6.862;2023-07-29T05:58:16;21.27;;;6.30;;
60169;SDS011;46042;49.444;6.862;2023-07-29T06:00:43;20.65;;;6.90;;
60169;SDS011;46042;49.444;6.862;2023-07-29T06:03:09;27.23;;;7.85;;
60169;SDS011;46042;49.444;6.862;2023-07-29T06:05:36;29.27;;;8.05;;
60169;SDS011;46042;49.444;6.862;2023-07-29T06:08:03;29.15;;;8.85;;
60169;SDS011;46042;49.444;6.862;2023-07-29T06:10:30;27.55;;;8.75;;
60169;SDS011;46042;49.444;6.862;2023-07-29T06:12:57;25.73;;;8.30;;
60169;SDS011;46042;49.444;6.862;2023-07-29T06:15:23;32.72;;;9.70;;
60169;SDS011;46042;49.444;6.862;2023-07-29T06:17:50;28.55;;;9.25;;
60169;SDS011;46042;49.444;6.862;2023-07-29T06:20:19;16.15;;;6.03;;
60169;SDS011;46042;49.444;6.862;2023-07-29T06:22:45;10.65;;;4.50;;
60169;SDS011;46042;49.444;6.862;2023-07-29T06:25:12;19.15;;;6.07;;
60169;SDS011;46042;49.444;6.862;2023-07-29T06:27:39;15.38;;;6.05;;
60169;SDS011;46042;49.444;6.862;2023-07-29T06:30:06;17.70;;;7.60;;
60169;SDS011;46042;49.444;6.862;2023-07-29T06:32:33;16.30;;;7.00;;
60169;SDS011;46042;49.444;6.862;2023-07-29T06:35:01;29.13;;;8.90;;
60169;SDS011;46042;49.444;6.862;2023-07-29T06:37:27;9.43;;;3.83;;
60169;SDS011;46042;49.444;6.862;2023-07-29T06:39:54;9.38;;;4.30;;
60169;SDS011;46042;49.444;6.862;2023-07-29T06:42:21;12.57;;;4.03;;
60169;SDS011;46042;49.444;6.862;2023-07-29T06:44:47;20.38;;;4.35;;
60169;SDS011;46042;49.444;6.862;2023-07-29T06:47:14;13.10;;;4.60;;
60169;SDS011;46042;49.444;6.862;2023-07-29T06:49:40;15.00;;;4.60;;
60169;SDS011;46042;49.444;6.862;2023-07-29T06:52:07;10.35;;;4.30;;
60169;SDS011;46042;49.444;6.862;2023-07-29T06:54:34;17.00;;;6.30;;
60169;SDS011;46042;49.444;6.862;2023-07-29T06:57:00;16.90;;;6.82;;
60169;SDS011;46042;49.444;6.862;2023-07-29T06:59:27;19.42;;;6.00;;
60169;SDS011;46042;49.444;6.862;2023-07-29T07:01:54;10.85;;;4.05;;
60169;SDS011;46042;49.444;6.862;2023-07-29T07:04:21;19.08;;;6.28;;
60169;SDS011;46042;49.444;6.862;2023-07-29T07:06:47;12.85;;;4.57;;
60169;SDS011;46042;49.444;6.862;2023-07-29T07:09:14;8.77;;;4.05;;
60169;SDS011;46042;49.444;6.862;2023-07-29T07:11:41;23.15;;;3.80;;
60169;SDS011;46042;49.444;6.862;2023-07-29T07:14:08;16.80;;;3.72;;
60169;SDS011;46042;49.444;6.862;2023-07-29T07:16:34;7.90;;;3.63;;
60169;SDS011;46042;49.444;6.862;2023-07-29T07:19:03;7.05;;;3.22;;
60169;SDS011;46042;49.444;6.862;2023-07-29T07:21:30;8.63;;;3.10;;
60169;SDS011;46042;49.444;6.862;2023-07-29T07:23:59;7.03;;;3.30;;
60169;SDS011;46042;49.444;6.862;2023-07-29T07:26:25;7.63;;;3.58;;
60169;SDS011;46042;49.444;6.862;2023-07-29T07:28:52;8.70;;;3.58;;
60169;SDS011;46042;49.444;6.862;2023-07-29T07:31:18;10.20;;;3.05;;
60169;SDS011;46042;49.444;6.862;2023-07-29T07:33:46;7.88;;;3.40;;
60169;SDS011;46042;49.444;6.862;2023-07-29T07:36:12;13.85;;;4.30;;
60169;SDS011;46042;49.444;6.862;2023-07-29T07:38:39;13.23;;;3.85;;
60169;SDS011;46042;49.444;6.862;2023-07-29T07:41:06;7.10;;;3.42;;
60169;SDS011;46042;49.444;6.862;2023-07-29T07:43:32;8.60;;;3.70;;
60169;SDS011;46042;49.444;6.862;2023-07-29T07:46:00;9.23;;;4.10;;
60169;SDS011;46042;49.444;6.862;2023-07-29T07:48:28;8.00;;;3.60;;
60169;SDS011;46042;49.444;6.862;2023-07-29T07:50:54;9.77;;;4.40;;
60169;SDS011;46042;49.444;6.862;2023-07-29T07:53:21;8.30;;;3.53;;
60169;SDS011;46042;49.444;6.862;2023-07-29T07:55:48;7.10;;;3.83;;
60169;SDS011;46042;49.444;6.862;2023-07-29T07:58:14;10.50;;;3.70;;
60169;SDS011;46042;49.444;6.862;2023-07-29T08:00:41;7.25;;;3.95;;
60169;SDS011;46042;49.444;6.862;2023-07-29T08:03:09;13.73;;;5.53;;
60169;SDS011;46042;49.444;6.862;2023-07-29T08:05:35;8.10;;;3.90;;
60169;SDS011;46042;49.444;6.862;2023-07-29T08:08:02;8.73;;;4.03;;
60169;SDS011;46042;49.444;6.862;2023-07-29T08:10:29;11.57;;;4.82;;
60169;SDS011;46042;49.444;6.862;2023-07-29T08:12:55;11.40;;;4.32;;
60169;SDS011;46042;49.444;6.862;2023-07-29T08:15:22;9.68;;;4.30;;
60169;SDS011;46042;49.444;6.862;2023-07-29T08:17:49;7.55;;;3.75;;
60169;SDS011;46042;49.444;6.862;2023-07-29T08:20:15;5.25;;;3.28;;
60169;SDS011;46042;49.444;6.862;2023-07-29T08:22:42;8.52;;;3.33;;
60169;SDS011;46042;49.444;6.862;2023-07-29T08:25:09;9.65;;;3.80;;
60169;SDS011;46042;49.444;6.862;2023-07-29T08:27:35;7.97;;;3.83;;
60169;SDS011;46042;49.444;6.862;2023-07-29T08:30:02;9.07;;;3.40;;
60169;SDS011;46042;49.444;6.862;2023-07-29T08:32:29;6.53;;;4.32;;
60169;SDS011;46042;49.444;6.862;2023-07-29T08:34:56;9.65;;;3.50;;
60169;SDS011;46042;49.444;6.862;2023-07-29T08:37:23;4.10;;;2.83;;
60169;SDS011;46042;49.444;6.862;2023-07-29T08:39:49;7.93;;;3.50;;
60169;SDS011;46042;49.444;6.862;2023-07-29T08:42:17;7.68;;;3.40;;
60169;SDS011;46042;49.444;6.862;2023-07-29T08:44:46;4.63;;;2.90;;
60169;SDS011;46042;49.444;6.862;2023-07-29T08:47:15;7.88;;;3.35;;
60169;SDS011;46042;49.444;6.862;2023-07-29T08:49:44;7.07;;;3.58;;
60169;SDS011;46042;49.444;6.862;2023-07-29T08:52:12;6.25;;;3.35;;
60169;SDS011;46042;49.444;6.862;2023-07-29T08:54:40;5.70;;;3.10;;
60169;SDS011;46042;49.444;6.862;2023-07-29T08:57:07;9.57;;;3.58;;
60169;SDS011;46042;49.444;6.862;2023-07-29T08:59:35;5.85;;;3.53;;
60169;SDS011;46042;49.444;6.862;2023-07-29T09:02:02;8.05;;;3.35;;
60169;SDS011;46042;49.444;6.862;2023-07-29T09:04:29;8.45;;;3.40;;
60169;SDS011;46042;49.444;6.862;2023-07-29T09:06:55;4.95;;;3.00;;
60169;SDS011;46042;49.444;6.862;2023-07-29T09:09:24;7.78;;;2.88;;
60169;SDS011;46042;49.444;6.862;2023-07-29T09:11:51;8.38;;;3.40;;
60169;SDS011;46042;49.444;6.862;2023-07-29T09:14:18;13.80;;;4.18;;
60169;SDS011;46042;49.444;6.862;2023-07-29T09:16:46;7.38;;;3.13;;
60169;SDS011;46042;49.444;6.862;2023-07-29T09:19:12;7.10;;;3.17;;
60169;SDS011;46042;49.444;6.862;2023-07-29T09:21:40;8.48;;;2.90;;
60169;SDS011;46042;49.444;6.862;2023-07-29T09:24:07;4.35;;;2.58;;
60169;SDS011;46042;49.444;6.862;2023-07-29T09:26:35;4.63;;;2.47;;
60169;SDS011;46042;49.444;6.862;2023-07-29T09:29:02;5.25;;;2.47;;
60169;SDS011;46042;49.444;6.862;2023-07-29T09:31:29;2.83;;;2.08;;
60169;SDS011;46042;49.444;6.862;2023-07-29T09:33:59;6.72;;;2.55;;
60169;SDS011;46042;49.444;6.862;2023-07-29T09:36:32;6.50;;;2.60;;
60169;SDS011;46042;49.444;6.862;2023-07-29T09:39:00;3.05;;;2.10;;
60169;SDS011;46042;49.444;6.862;2023-07-29T09:41:28;6.50;;;2.85;;
60169;SDS011;46042;49.444;6.862;2023-07-29T09:43:58;11.40;;;2.70;;
60169;SDS011;46042;49.444;6.862;2023-07-29T09:46:31;3.97;;;2.22;;
60169;SDS011;46042;49.444;6.862;2023-07-29T09:48:59;2.75;;;2.13;;
60169;SDS011;46042;49.444;6.862;2023-07-29T09:51:27;9.65;;;2.30;;
60169;SDS011;46042;49.444;6.862;2023-07-29T09:53:54;6.82;;;2.53;;
60169;SDS011;46042;49.444;6.862;2023-07-29T09:56:25;3.70;;;2.47;;
60169;SDS011;46042;49.444;6.862;2023-07-29T09:58:55;9.13;;;2.90;;
60169;SDS011;46042;49.444;6.862;2023-07-29T10:01:22;6.95;;;2.35;;
60169;SDS011;46042;49.444;6.862;2023-07-29T10:03:49;3.28;;;2.35;;
60169;SDS011;46042;49.444;6.862;2023-07-29T10:06:16;8.15;;;2.53;;
60169;SDS011;46042;49.444;6.862;2023-07-29T10:08:44;6.78;;;2.58;;
60169;SDS011;46042;49.444;6.862;2023-07-29T10:11:11;3.58;;;2.20;;
60169;SDS011;46042;49.444;6.862;2023-07-29T10:13:39;6.57;;;2.30;;
60169;SDS011;46042;49.444;6.862;2023-07-29T10:16:06;7.50;;;2.35;;
60169;SDS011;46042;49.444;6.862;2023-07-29T10:18:33;6.57;;;2.30;;
60169;SDS011;46042;49.444;6.862;2023-07-29T10:21:00;5.80;;;2.67;;
60169;SDS011;46042;49.444;6.862;2023-07-29T10:23:31;5.95;;;2.40;;
60169;SDS011;46042;49.444;6.862;2023-07-29T10:26:04;7.57;;;2.22;;
60169;SDS011;46042;49.444;6.862;2023-07-29T10:28:32;17.70;;;3.22;;
60169;SDS011;46042;49.444;6.862;2023-07-29T10:31:02;3.15;;;2.08;;
60169;SDS011;46042;49.444;6.862;2023-07-29T10:33:33;9.43;;;2.50;;
60169;SDS011;46042;49.444;6.862;2023-07-29T10:36:01;3.03;;;2.20;;
60169;SDS011;46042;49.444;6.862;2023-07-29T10:38:52;3.88;;;2.33;;
60169;SDS011;46042;49.444;6.862;2023-07-29T10:41:19;3.15;;;2.25;;
60169;SDS011;46042;49.444;6.862;2023-07-29T10:43:49;5.72;;;2.63;;
60169;SDS011;46042;49.444;6.862;2023-07-29T10:46:22;6.50;;;2.40;;
60169;SDS011;46042;49.444;6.862;2023-07-29T10:49:13;4.10;;;2.33;;
60169;SDS011;46042;49.444;6.862;2023-07-29T10:51:49;6.10;;;2.83;;
60169;SDS011;46042;49.444;6.862;2023-07-29T10:54:19;5.22;;;2.17;;
60169;SDS011;46042;49.444;6.862;2023-07-29T10:56:49;3.78;;;2.50;;
60169;SDS011;46042;49.444;6.862;2023-07-29T11:01:50;3.42;;;2.55;;
60169;SDS011;46042;49.444;6.862;2023-07-29T11:10:01;6.10;;;2.38;;
60169;SDS011;46042;49.444;6.862;2023-07-29T11:12:41;5.80;;;2.50;;
60169;SDS011;46042;49.444;6.862;2023-07-29T11:15:35;3.63;;;2.65;;
60169;SDS011;46042;49.444;6.862;2023-07-29T11:18:06;3.83;;;2.55;;
60169;SDS011;46042;49.444;6.862;2023-07-29T11:21:00;3.72;;;2.42;;
60169;SDS011;46042;49.444;6.862;2023-07-29T11:23:53;5.60;;;2.35;;
60169;SDS011;46042;49.444;6.862;2023-07-29T11:26:19;6.28;;;2.83;;
60169;SDS011;46042;49.444;6.862;2023-07-29T11:28:46;3.20;;;2.40;;
60169;SDS011;46042;49.444;6.862;2023-07-29T11:31:16;7.68;;;2.65;;
60169;SDS011;46042;49.444;6.862;2023-07-29T11:33:46;5.55;;;2.60;;
60169;SDS011;46042;49.444;6.862;2023-07-29T11:36:18;2.97;;;2.08;;
60169;SDS011;46042;49.444;6.862;2023-07-29T11:38:50;6.40;;;2.45;;
60169;SDS011;46042;49.444;6.862;2023-07-29T11:41:19;6.85;;;2.92;;
60169;SDS011;46042;49.444;6.862;2023-07-29T11:43:47;7.28;;;2.65;;
60169;SDS011;46042;49.444;6.862;2023-07-29T11:46:13;3.97;;;2.70;;
60169;SDS011;46042;49.444;6.862;2023-07-29T11:48:40;4.90;;;3.00;;
60169;SDS011;46042;49.444;6.862;2023-07-29T11:51:13;5.88;;;2.38;;
60169;SDS011;46042;49.444;6.862;2023-07-29T11:53:40;3.10;;;2.55;;
60169;SDS011;46042;49.444;6.862;2023-07-29T11:56:08;4.35;;;2.67;;
60169;SDS011;46042;49.444;6.862;2023-07-29T11:58:35;4.03;;;2.35;;
60169;SDS011;46042;49.444;6.862;2023-07-29T12:01:03;3.30;;;2.70;;
60169;SDS011;46042;49.444;6.862;2023-07-29T12:03:53;8.15;;;2.63;;
60169;SDS011;46042;49.444;6.862;2023-07-29T12:06:22;3.22;;;2.20;;
60169;SDS011;46042;49.444;6.862;2023-07-29T12:08:54;4.78;;;2.70;;
60169;SDS011;46042;49.444;6.862;2023-07-29T12:11:22;3.42;;;2.22;;
60169;SDS011;46042;49.444;6.862;2023-07-29T12:13:49;4.53;;;2.92;;
60169;SDS011;46042;49.444;6.862;2023-07-29T12:16:43;5.70;;;2.65;;
60169;SDS011;46042;49.444;6.862;2023-07-29T12:19:36;7.70;;;2.25;;
60169;SDS011;46042;49.444;6.862;2023-07-29T12:22:04;4.35;;;3.22;;
60169;SDS011;46042;49.444;6.862;2023-07-29T12:24:55;3.65;;;2.75;;
60169;SDS011;46042;49.444;6.862;2023-07-29T12:27:22;4.60;;;2.70;;
60169;SDS011;46042;49.444;6.862;2023-07-29T12:29:53;3.53;;;2.88;;
60169;SDS011;46042;49.444;6.862;2023-07-29T12:32:20;3.05;;;2.63;;
60169;SDS011;46042;49.444;6.862;2023-07-29T12:34:53;4.00;;;2.53;;
60169;SDS011;46042;49.444;6.862;2023-07-29T12:37:20;6.68;;;2.40;;
60169;SDS011;46042;49.444;6.862;2023-07-29T12:39:49;4.80;;;2.60;;
60169;SDS011;46042;49.444;6.862;2023-07-29T12:42:17;3.42;;;2.40;;
60169;SDS011;46042;49.444;6.862;2023-07-29T12:44:44;3.67;;;3.05;;
60169;SDS011;46042;49.444;6.862;2023-07-29T12:47:10;7.72;;;2.95;;
60169;SDS011;46042;49.444;6.862;2023-07-29T12:49:41;4.50;;;2.50;;
60169;SDS011;46042;49.444;6.862;2023-07-29T12:52:08;4.68;;;2.85;;
60169;SDS011;46042;49.444;6.862;2023-07-29T12:54:34;4.75;;;2.67;;
60169;SDS011;46042;49.444;6.862;2023-07-29T12:57:25;5.40;;;2.83;;
60169;SDS011;46042;49.444;6.862;2023-07-29T13:00:15;3.72;;;2.50;;
60169;SDS011;46042;49.444;6.862;2023-07-29T13:02:42;9.45;;;2.85;;
60169;SDS011;46042;49.444;6.862;2023-07-29T13:05:13;5.43;;;2.75;;
60169;SDS011;46042;49.444;6.862;2023-07-29T13:07:40;5.68;;;2.75;;
60169;SDS011;46042;49.444;6.862;2023-07-29T13:10:10;5.78;;;2.60;;
60169;SDS011;46042;49.444;6.862;2023-07-29T13:13:01;4.28;;;3.10;;
60169;SDS011;46042;49.444;6.862;2023-07-29T13:15:52;4.10;;;2.47;;
60169;SDS011;46042;49.444;6.862;2023-07-29T13:18:27;16.77;;;2.80;;
60169;SDS011;46042;49.444;6.862;2023-07-29T13:20:54;8.05;;;2.50;;
60169;SDS011;46042;49.444;6.862;2023-07-29T13:23:21;3.75;;;2.70;;
60169;SDS011;46042;49.444;6.862;2023-07-29T13:26:12;3.97;;;2.78;;
60169;SDS011;46042;49.444;6.862;2023-07-29T13:28:39;10.38;;;2.60;;
60169;SDS011;46042;49.444;6.862;2023-07-29T13:31:06;4.07;;;2.60;;
60169;SDS011;46042;49.444;6.862;2023-07-29T13:33:32;3.05;;;2.60;;
60169;SDS011;46042;49.444;6.862;2023-07-29T13:36:00;5.22;;;2.65;;
60169;SDS011;46042;49.444;6.862;2023-07-29T13:38:29;4.47;;;2.95;;
60169;SDS011;46042;49.444;6.862;2023-07-29T13:40:56;8.82;;;3.38;;
60169;SDS011;46042;49.444;6.862;2023-07-29T13:43:23;4.25;;;2.97;;
60169;SDS011;46042;49.444;6.862;2023-07-29T13:45:50;3.60;;;3.10;;
60169;SDS011;46042;49.444;6.862;2023-07-29T13:48:17;3.58;;;2.88;;
60169;SDS011;46042;49.444;6.862;2023-07-29T13:51:07;4.35;;;3.00;;
60169;SDS011;46042;49.444;6.862;2023-07-29T13:53:38;3.80;;;2.75;;
60169;SDS011;46042;49.444;6.862;2023-07-29T13:56:05;3.65;;;3.17;;
60169;SDS011;46042;49.444;6.862;2023-07-29T13:58:35;5.25;;;2.78;;
60169;SDS011;46042;49.444;6.862;2023-07-29T14:01:02;6.70;;;2.92;;
60169;SDS011;46042;49.444;6.862;2023-07-29T14:03:52;5.60;;;3.10;;
60169;SDS011;46042;49.444;6.862;2023-07-29T14:06:20;22.65;;;3.60;;
60169;SDS011;46042;49.444;6.862;2023-07-29T14:09:10;5.40;;;3.33;;
60169;SDS011;46042;49.444;6.862;2023-07-29T14:11:36;3.97;;;2.90;;
60169;SDS011;46042;49.444;6.862;2023-07-29T14:14:04;9.50;;;2.85;;
60169;SDS011;46042;49.444;6.862;2023-07-29T14:16:55;3.03;;;2.70;;
60169;SDS011;46042;49.444;6.862;2023-07-29T14:19:21;5.35;;;2.97;;
60169;SDS011;46042;49.444;6.862;2023-07-29T14:22:13;5.38;;;3.00;;
60169;SDS011;46042;49.444;6.862;2023-07-29T14:24:42;5.50;;;2.80;;
60169;SDS011;46042;49.444;6.862;2023-07-29T14:27:09;5.32;;;3.35;;
60169;SDS011;46042;49.444;6.862;2023-07-29T14:29:36;4.75;;;3.20;;
60169;SDS011;46042;49.444;6.862;2023-07-29T14:32:02;5.28;;;3.00;;
60169;SDS011;46042;49.444;6.862;2023-07-29T14:34:54;5.93;;;3.17;;
60169;SDS011;46042;49.444;6.862;2023-07-29T14:37:45;7.03;;;3.10;;
60169;SDS011;46042;49.444;6.862;2023-07-29T14:40:11;4.28;;;2.88;;
60169;SDS011;46042;49.444;6.862;2023-07-29T14:42:38;3.53;;;2.85;;
60169;SDS011;46042;49.444;6.862;2023-07-29T14:45:05;13.70;;;6.35;;
60169;SDS011;46042;49.444;6.862;2023-07-29T14:47:56;6.97;;;3.80;;
60169;SDS011;46042;49.444;6.862;2023-07-29T14:50:23;4.88;;;3.08;;
60169;SDS011;46042;49.444;6.862;2023-07-29T14:52:50;5.55;;;3.60;;
60169;SDS011;46042;49.444;6.862;2023-07-29T14:55:17;6.43;;;4.03;;
60169;SDS011;46042;49.444;6.862;2023-07-29T14:58:08;8.48;;;3.20;;
60169;SDS011;46042;49.444;6.862;2023-07-29T15:00:38;5.10;;;2.78;;
60169;SDS011;46042;49.444;6.862;2023-07-29T15:03:04;8.52;;;3.00;;
60169;SDS011;46042;49.444;6.862;2023-07-29T15:05:33;5.50;;;2.75;;
60169;SDS011;46042;49.444;6.862;2023-07-29T15:08:00;3.97;;;2.70;;
60169;SDS011;46042;49.444;6.862;2023-07-29T15:10:51;7.38;;;3.60;;
60169;SDS011;46042;49.444;6.862;2023-07-29T15:13:17;8.07;;;4.10;;
60169;SDS011;46042;49.444;6.862;2023-07-29T15:16:07;8.05;;;4.03;;